createdAt,value
2017-06-19T19:13:08.853Z,6.23
2017-06-19T19:15:36.718Z,6.40
2017-06-19T19:18:04.558Z,6.23
2017-06-19T19:20:33.089Z,5.20
2017-06-19T19:23:01.996Z,6.63
2017-06-19T19:25:30.118Z,5.47
2017-06-19T19:27:59.090Z,6.30
2017-06-19T19:30:27.529Z,6.07
2017-06-19T19:32:55.408Z,6.80
2017-06-19T19:35:23.910Z,6.57
2017-06-19T19:37:51.503Z,6.50
2017-06-19T19:40:19.062Z,7.30
2017-06-19T19:42:46.700Z,6.53
2017-06-19T19:45:14.302Z,6.20
2017-06-19T19:47:44.585Z,7.00
2017-06-19T19:50:12.632Z,6.77
2017-06-19T19:52:40.241Z,6.70
2017-06-19T19:55:08.061Z,7.00
2017-06-19T19:57:36.623Z,6.70
2017-06-19T20:00:04.441Z,7.00
2017-06-19T20:02:32.456Z,7.40
2017-06-19T20:05:01.198Z,6.93
2017-06-19T20:07:29.192Z,7.20
2017-06-19T20:09:57.137Z,7.00
2017-06-19T20:12:25.523Z,7.20
2017-06-19T20:14:53.992Z,7.93
2017-06-19T20:17:21.553Z,7.53
2017-06-19T20:19:49.280Z,9.73
2017-06-19T20:22:16.856Z,8.23
2017-06-19T20:24:44.463Z,7.30
2017-06-19T20:27:12.820Z,8.00
2017-06-19T20:29:40.712Z,7.47
2017-06-19T20:32:08.875Z,7.87
2017-06-19T20:34:37.340Z,7.40
2017-06-19T20:37:06.065Z,8.33
2017-06-19T20:39:33.761Z,9.03
2017-06-19T20:42:02.526Z,7.40
2017-06-19T20:44:30.357Z,7.30
2017-06-19T20:46:58.082Z,7.60
2017-06-19T20:49:26.970Z,7.47
2017-06-19T20:51:54.579Z,7.80
2017-06-19T20:54:22.162Z,7.27
2017-06-19T20:56:51.605Z,8.10
2017-06-19T20:59:19.192Z,7.17
2017-06-19T21:01:46.780Z,8.33
2017-06-19T21:04:14.387Z,7.83
2017-06-19T21:06:42.014Z,9.20
2017-06-19T21:09:09.849Z,7.93
2017-06-19T21:11:37.716Z,7.90
2017-06-19T21:14:05.396Z,8.50
2017-06-19T21:16:33.601Z,8.03
2017-06-19T21:19:02.527Z,8.27
2017-06-19T21:21:31.991Z,8.60
2017-06-19T21:24:00.076Z,10.00
2017-06-19T21:26:29.566Z,8.90
2017-06-19T21:28:57.512Z,8.37
2017-06-19T21:31:26.634Z,8.37
2017-06-19T21:33:55.097Z,9.70
2017-06-19T21:36:22.955Z,9.67
2017-06-19T21:38:50.521Z,9.83
2017-06-19T21:41:18.142Z,10.00
2017-06-19T21:43:45.730Z,10.20
2017-06-19T21:46:13.421Z,8.87
2017-06-19T21:48:41.168Z,10.10
2017-06-19T21:51:10.118Z,10.17
2017-06-19T21:53:37.862Z,10.17
2017-06-19T21:56:06.378Z,9.90
2017-06-19T21:58:35.069Z,10.40
2017-06-19T22:01:02.921Z,9.20
2017-06-19T22:03:31.505Z,10.77
2017-06-19T22:05:59.934Z,10.20
2017-06-19T22:08:28.020Z,10.03
2017-06-19T22:10:56.793Z,9.30
2017-06-19T22:13:25.767Z,9.70
2017-06-19T22:15:53.361Z,14.77
2017-06-19T22:18:21.277Z,9.37
2017-06-19T22:20:54.403Z,10.13
2017-06-19T22:23:24.369Z,10.23
2017-06-19T22:25:52.479Z,13.30
2017-06-19T22:28:20.039Z,14.93
2017-06-19T22:30:47.666Z,17.10
2017-06-19T22:33:15.250Z,18.77
2017-06-19T22:35:42.910Z,15.83
2017-06-19T22:38:11.561Z,19.20
2017-06-19T22:40:39.601Z,19.57
2017-06-19T22:43:07.586Z,20.00
2017-06-19T22:45:36.560Z,20.20
2017-06-19T22:48:04.367Z,18.93
2017-06-19T22:50:32.605Z,30.13
2017-06-19T22:53:00.773Z,29.77
2017-06-19T22:55:28.780Z,24.37
2017-06-19T22:57:57.620Z,31.67
2017-06-19T23:00:25.804Z,23.77
2017-06-19T23:02:53.412Z,13.10
2017-06-19T23:05:21.002Z,13.70
2017-06-19T23:07:49.036Z,17.13
2017-06-19T23:10:16.651Z,25.23
2017-06-19T23:12:44.310Z,28.70
2017-06-19T23:15:12.912Z,27.40
2017-06-19T23:17:40.764Z,27.60
2017-06-19T23:20:08.574Z,25.67
2017-06-19T23:22:36.583Z,23.53
2017-06-19T23:25:04.365Z,22.70
2017-06-19T23:27:32.386Z,21.17
2017-06-19T23:30:00.538Z,19.47
2017-06-19T23:32:28.374Z,19.90
2017-06-19T23:34:56.287Z,17.57
2017-06-19T23:37:23.980Z,17.23
2017-06-19T23:39:51.596Z,14.80
2017-06-19T23:42:19.944Z,16.23
2017-06-19T23:44:47.528Z,16.17
2017-06-19T23:47:15.091Z,16.20
2017-06-19T23:49:43.186Z,14.30
2017-06-19T23:52:10.848Z,16.50
2017-06-19T23:54:38.513Z,15.50
2017-06-19T23:57:06.552Z,15.93
2017-06-19T23:59:34.963Z,15.03
